Language: 


Des rapports , des résumés tant et plus, au choix de chacun....


Données statistiques de la station
Quotidien Rapport Février 10, 2017 Unités:  Anglais    Métrique   les deux
« Précédent Jour
Suivant Jour »
Quotidien Hebdomadaire Mensuel Annuel Actuel
  Haut: Bas: Moyen:
Température: 33.3 °F 29.7 °F 31.8 °F
Pt de rosée: 32.5 °F 29.1 °F 30.4 °F
Humidité: 98 % 87 % 95 %
Vitesse du vent: 10.5 mph 0 mph 5.8 mph
Rafales: 17.9 mph - -
Vent:- - ENE
Pression: 30.2 in 30.1 in -
Précipitation: 0 in    
Historical Graphs
 
 
Données statistiques pour Février 10, 2017
Heure Température Point de rosée Pression Vent Vitesse du vent Refales Humidité Pluie (taux horaire)
00:00 33.3 °F 32.5 °F 30.2 in NE 3.8 mph 6.3 mph 97 % 0 in
00:02 33.3 °F 32.5 °F 30.2 in NE 3.6 mph 6.5 mph 97 % 0 in
00:07 33.3 °F 32.5 °F 30.2 in NE 4 mph 6.5 mph 97 % 0 in
00:13 33.1 °F 32.4 °F 30.2 in NE 6.3 mph 6.5 mph 97 % 0 in
00:18 33.1 °F 32.4 °F 30.2 in NNE 6 mph 6.5 mph 97 % 0 in
00:23 32.9 °F 32.4 °F 30.2 in NE 5.4 mph 8.5 mph 98 % 0 in
00:28 32.9 °F 32.4 °F 30.2 in NE 5.6 mph 8.5 mph 98 % 0 in
00:33 32.9 °F 32.4 °F 30.2 in NE 6.3 mph 7.2 mph 98 % 0 in
00:38 32.7 °F 32.2 °F 30.2 in NNE 7.8 mph 7.8 mph 98 % 0 in
00:43 32.7 °F 32.2 °F 30.2 in NE 6 mph 7.8 mph 98 % 0 in
00:48 32.7 °F 32.2 °F 30.2 in NNE 6.3 mph 7.6 mph 98 % 0 in
00:53 32.7 °F 32.2 °F 30.2 in NE 3.8 mph 7.6 mph 98 % 0 in
00:58 32.7 °F 32.2 °F 30.2 in NE 7.2 mph 8.1 mph 98 % 0 in
01:03 32.7 °F 32.2 °F 30.2 in NNE 6.3 mph 8.1 mph 98 % 0 in
01:08 32.5 °F 32 °F 30.2 in NE 7.2 mph 8.1 mph 98 % 0 in
01:13 32.5 °F 32 °F 30.2 in NNE 6.3 mph 8.1 mph 98 % 0 in
01:18 32.5 °F 32 °F 30.2 in NE 5.8 mph 7.6 mph 98 % 0 in
01:23 32.5 °F 32 °F 30.2 in North 6.5 mph 8.5 mph 98 % 0 in
01:28 32.5 °F 32 °F 30.2 in NE 7.4 mph 8.5 mph 98 % 0 in
01:33 32.5 °F 32 °F 30.2 in NE 6.3 mph 8.5 mph 98 % 0 in
01:38 32.5 °F 32 °F 30.2 in NE 5.8 mph 7.8 mph 98 % 0 in
01:43 32.4 °F 31.8 °F 30.2 in NE 4.3 mph 7.8 mph 98 % 0 in
01:48 32.4 °F 31.8 °F 30.2 in NE 7.2 mph 7.8 mph 98 % 0 in
01:53 32.4 °F 31.8 °F 30.2 in NE 6.5 mph 7.8 mph 98 % 0 in
01:58 32.2 °F 31.6 °F 30.2 in ENE 5.6 mph 7.8 mph 98 % 0 in
02:03 32.2 °F 31.6 °F 30.2 in NE 5.8 mph 7.4 mph 98 % 0 in
02:09 32.2 °F 31.6 °F 30.2 in NE 5.8 mph 7.4 mph 98 % 0 in
02:14 32.2 °F 31.6 °F 30.2 in ENE 5.4 mph 8.1 mph 98 % 0 in
02:19 32.2 °F 31.6 °F 30.2 in NE 6 mph 8.1 mph 98 % 0 in
02:24 32.2 °F 31.6 °F 30.2 in NE 4.9 mph 7.8 mph 98 % 0 in
02:29 32.2 °F 31.6 °F 30.2 in North 4 mph 7.6 mph 98 % 0 in
02:34 32 °F 31.5 °F 30.2 in NE 5.4 mph 7.6 mph 98 % 0 in
02:39 32 °F 31.5 °F 30.2 in NE 3.1 mph 7.4 mph 98 % 0 in
02:44 31.8 °F 31.3 °F 30.2 in NNE 4 mph 6.5 mph 98 % 0 in
02:47 31.8 °F 31.3 °F 30.2 in NE 6.3 mph 6.5 mph 98 % 0 in
02:52 31.8 °F 31.3 °F 30.2 in NNE 7.2 mph 7.6 mph 98 % 0 in
02:57 31.8 °F 31.3 °F 30.2 in NE 5.4 mph 7.6 mph 98 % 0 in
03:02 31.6 °F 31.1 °F 30.2 in NNE 5.4 mph 8.1 mph 98 % 0 in
03:07 31.6 °F 31.1 °F 30.2 in NE 6 mph 7.6 mph 98 % 0 in
03:12 31.5 °F 30.9 °F 30.2 in North 5.8 mph 7.4 mph 98 % 0 in
03:13 31.5 °F 30.9 °F 30.2 in North 5.4 mph 7.4 mph 98 % 0 in
03:18 31.5 °F 30.9 °F 30.2 in NNE 4.3 mph 7.4 mph 98 % 0 in
03:23 31.5 °F 30.9 °F 30.2 in NNE 5.4 mph 7.2 mph 98 % 0 in
03:28 31.3 °F 30.7 °F 30.2 in NE 6.3 mph 6.7 mph 98 % 0 in
03:33 31.3 °F 30.7 °F 30.2 in NE 5.4 mph 6.7 mph 98 % 0 in
03:38 31.3 °F 30.7 °F 30.2 in NNE 3.8 mph 6 mph 98 % 0 in
03:40 31.3 °F 30.7 °F 30.2 in NNE 4.7 mph 6.3 mph 98 % 0 in
03:43 31.3 °F 30.7 °F 30.2 in NE 6.3 mph 6.5 mph 98 % 0 in
03:48 31.3 °F 30.7 °F 30.2 in NNE 6 mph 6.5 mph 98 % 0 in
03:53 31.3 °F 30.7 °F 30.1 in NE 5.4 mph 6.3 mph 98 % 0 in
03:58 31.3 °F 30.7 °F 30.1 in North 5.6 mph 6.5 mph 98 % 0 in
04:03 31.3 °F 30.7 °F 30.1 in NE 4.9 mph 6.5 mph 98 % 0 in
04:08 31.3 °F 30.7 °F 30.2 in NNE 3.1 mph 6.3 mph 98 % 0 in
04:13 31.3 °F 30.7 °F 30.2 in NE 5.8 mph 6.3 mph 98 % 0 in
04:18 31.3 °F 30.7 °F 30.2 in NNE 4.7 mph 5.8 mph 98 % 0 in
04:23 31.3 °F 30.7 °F 30.2 in NE 3.1 mph 5.8 mph 98 % 0 in
04:28 31.1 °F 30.6 °F 30.2 in NE 2.9 mph 5.8 mph 98 % 0 in
04:33 31.1 °F 30.6 °F 30.2 in NE 5.6 mph 5.6 mph 98 % 0 in
04:38 31.1 °F 30.6 °F 30.2 in ENE 5.4 mph 5.6 mph 98 % 0 in
04:43 31.1 °F 30.6 °F 30.2 in East 1.6 mph 6.3 mph 98 % 0 in
04:48 31.1 °F 30.6 °F 30.2 in NE 4.9 mph 7.2 mph 98 % 0 in
04:53 31.1 °F 30.6 °F 30.2 in NE 4.9 mph 7.4 mph 98 % 0 in
04:58 31.1 °F 30.6 °F 30.2 in East 5.4 mph 8.1 mph 98 % 0 in
05:03 31.1 °F 30.6 °F 30.2 in ENE 3.6 mph 8.1 mph 98 % 0 in
05:08 31.1 °F 30.6 °F 30.2 in ENE 6.7 mph 7.4 mph 98 % 0 in
05:13 31.1 °F 30.6 °F 30.2 in ENE 3.8 mph 8.1 mph 98 % 0 in
05:16 31.1 °F 30.6 °F 30.2 in ENE 5.4 mph 8.1 mph 98 % 0 in
05:21 31.1 °F 30.6 °F 30.2 in East 3.6 mph 8.1 mph 98 % 0 in
05:26 31.1 °F 30.6 °F 30.2 in East 3.6 mph 6.5 mph 98 % 0 in
05:28 31.1 °F 30.6 °F 30.2 in ENE 4.3 mph 6.5 mph 98 % 0 in
05:33 31.1 °F 30.6 °F 30.2 in ENE 4 mph 6.3 mph 98 % 0 in
05:38 31.1 °F 30.6 °F 30.2 in NNE 4.3 mph 6.3 mph 98 % 0 in
05:43 31.1 °F 30.6 °F 30.2 in NE 5.8 mph 6.3 mph 98 % 0 in
05:48 31.1 °F 30.6 °F 30.2 in ENE 5.6 mph 7.6 mph 98 % 0 in
05:53 31.1 °F 30.6 °F 30.2 in ENE 6 mph 7.6 mph 98 % 0 in
05:58 31.1 °F 30.6 °F 30.2 in NE 6.3 mph 7.6 mph 98 % 0 in
06:03 30.9 °F 30.4 °F 30.2 in NE 7.4 mph 8.7 mph 98 % 0 in
06:08 30.9 °F 30.4 °F 30.2 in NNE 5.8 mph 8.7 mph 98 % 0 in
06:13 30.7 °F 30.4 °F 30.2 in NNE 5.6 mph 8.5 mph 98 % 0 in
06:18 30.6 °F 30 °F 30.2 in NE 5.8 mph 7.6 mph 98 % 0 in
06:23 30.6 °F 30 °F 30.2 in NNE 5.8 mph 7.2 mph 98 % 0 in
06:28 30.6 °F 30 °F 30.2 in NNE 4.9 mph 6.7 mph 98 % 0 in
06:33 30.4 °F 29.8 °F 30.2 in NNE 4 mph 7.6 mph 98 % 0 in
06:38 30.4 °F 29.8 °F 30.2 in NNE 6 mph 7.6 mph 98 % 0 in
06:43 30.4 °F 29.8 °F 30.2 in NNE 8.5 mph 9.8 mph 98 % 0 in
06:48 30.4 °F 29.8 °F 30.2 in NE 4.9 mph 9.8 mph 98 % 0 in
06:53 30.4 °F 29.8 °F 30.2 in NE 8.5 mph 9.4 mph 98 % 0 in
06:58 30.2 °F 29.7 °F 30.2 in NE 4.9 mph 8.7 mph 98 % 0 in
07:03 30.2 °F 29.7 °F 30.2 in NE 6.3 mph 8.7 mph 98 % 0 in
07:08 30.2 °F 29.7 °F 30.2 in NE 6 mph 7.8 mph 98 % 0 in
07:13 30.2 °F 29.7 °F 30.2 in NE 5.6 mph 10.3 mph 98 % 0 in
07:18 30.2 °F 29.7 °F 30.2 in NE 8.1 mph 10.3 mph 98 % 0 in
07:23 30.2 °F 29.7 °F 30.2 in North 5.8 mph 9.6 mph 98 % 0 in
07:28 30.2 °F 29.7 °F 30.2 in NE 7.8 mph 9.6 mph 98 % 0 in
07:33 30.2 °F 29.7 °F 30.2 in NNE 6.3 mph 8.7 mph 98 % 0 in
07:38 30.2 °F 29.7 °F 30.2 in NE 7.4 mph 8.5 mph 98 % 0 in
07:43 30.2 °F 29.7 °F 30.2 in NE 5.6 mph 8.5 mph 98 % 0 in
07:48 30.2 °F 29.7 °F 30.2 in NE 7.8 mph 8.5 mph 98 % 0 in
07:53 30.2 °F 29.7 °F 30.2 in NE 7.2 mph 9.8 mph 98 % 0 in
07:58 30 °F 29.7 °F 30.2 in NE 6.5 mph 9.8 mph 98 % 0 in
08:03 30 °F 29.7 °F 30.2 in North 5.8 mph 8.5 mph 98 % 0 in
08:08 30 °F 29.7 °F 30.2 in NE 5.8 mph 8.5 mph 98 % 0 in
08:13 30 °F 29.7 °F 30.2 in NE 5.4 mph 8.5 mph 98 % 0 in
08:18 29.8 °F 29.5 °F 30.2 in NNE 7.4 mph 9.6 mph 98 % 0 in
08:23 29.8 °F 29.5 °F 30.2 in NE 6 mph 10.1 mph 98 % 0 in
08:28 29.7 °F 29.1 °F 30.2 in ENE 7.6 mph 10.1 mph 98 % 0 in
08:33 29.7 °F 29.1 °F 30.2 in NE 5.8 mph 9.2 mph 98 % 0 in
08:38 29.7 °F 29.1 °F 30.2 in ENE 7.8 mph 8.5 mph 98 % 0 in
08:43 29.7 °F 29.1 °F 30.2 in NE 4 mph 8.5 mph 98 % 0 in
08:48 29.7 °F 29.1 °F 30.2 in NE 3.8 mph 7.8 mph 98 % 0 in
08:53 29.7 °F 29.1 °F 30.2 in NE 5.8 mph 7.8 mph 98 % 0 in
08:58 29.7 °F 29.1 °F 30.2 in NE 2.7 mph 7.8 mph 98 % 0 in
09:03 29.7 °F 29.1 °F 30.2 in NE 5.8 mph 7.8 mph 98 % 0 in
09:08 29.7 °F 29.1 °F 30.2 in NE 6.5 mph 7.8 mph 98 % 0 in
09:13 29.7 °F 29.1 °F 30.2 in ENE 5.6 mph 8.7 mph 98 % 0 in
09:18 29.7 °F 29.1 °F 30.2 in NE 3.6 mph 8.7 mph 98 % 0 in
09:23 29.8 °F 29.5 °F 30.2 in NE 5.6 mph 6.3 mph 98 % 0 in
09:28 29.8 °F 29.5 °F 30.2 in ENE 2.7 mph 6.3 mph 98 % 0 in
09:33 29.8 °F 29.5 °F 30.2 in NE 5.4 mph 8.5 mph 98 % 0 in
09:38 30 °F 29.7 °F 30.1 in ENE 6.3 mph 8.5 mph 98 % 0 in
09:43 30 °F 29.7 °F 30.1 in ENE 3.8 mph 7.8 mph 98 % 0 in
09:48 30.2 °F 29.7 °F 30.1 in NE 5.4 mph 6.9 mph 98 % 0 in
09:53 30.2 °F 29.7 °F 30.2 in NE 5.6 mph 8.1 mph 98 % 0 in
09:58 30 °F 29.7 °F 30.2 in ENE 6 mph 8.5 mph 98 % 0 in
10:03 30 °F 29.7 °F 30.2 in NE 5.4 mph 8.5 mph 98 % 0 in
10:08 30 °F 29.7 °F 30.1 in NNE 3.8 mph 7.6 mph 98 % 0 in
10:13 30 °F 29.7 °F 30.1 in NE 4.3 mph 6.5 mph 98 % 0 in
10:18 30 °F 29.7 °F 30.1 in NNE 2.7 mph 8.1 mph 98 % 0 in
10:23 30.2 °F 29.7 °F 30.1 in NE 6.3 mph 8.1 mph 98 % 0 in
10:28 30.4 °F 29.7 °F 30.1 in NNE 7.6 mph 7.6 mph 97 % 0 in
10:33 30.7 °F 30.4 °F 30.1 in NE 3.8 mph 7.6 mph 98 % 0 in
10:38 30.9 °F 30.2 °F 30.2 in NE 5.4 mph 8.1 mph 97 % 0 in
10:43 31.1 °F 30.4 °F 30.2 in NNE 5.6 mph 8.1 mph 97 % 0 in
10:48 30.9 °F 30.2 °F 30.2 in NE 3.4 mph 8.1 mph 97 % 0 in
10:53 31.1 °F 30.4 °F 30.2 in NE 6 mph 8.1 mph 97 % 0 in
10:58 31.1 °F 30.4 °F 30.2 in NE 6 mph 17.9 mph 97 % 0 in
11:03 31.1 °F 30.4 °F 30.2 in NNE 6.5 mph 17.9 mph 97 % 0 in
11:08 31.3 °F 30.4 °F 30.2 in NE 5.6 mph 8.1 mph 96 % 0 in
11:13 31.5 °F 30.6 °F 30.2 in NNE 4.3 mph 8.1 mph 96 % 0 in
11:18 31.6 °F 30.6 °F 30.2 in Calm   7.6 mph 96 % 0 in
11:23 31.8 °F 30.7 °F 30.2 in North 4.3 mph 7.6 mph 96 % 0 in
11:28 31.6 °F 30.6 °F 30.2 in NNE 5.8 mph 7.8 mph 96 % 0 in
11:33 31.6 °F 30.4 °F 30.2 in NE 7.8 mph 17.9 mph 95 % 0 in
11:38 31.8 °F 30.6 °F 30.2 in NE 3.8 mph 17.9 mph 95 % 0 in
11:43 31.8 °F 30.6 °F 30.2 in NE 6.9 mph 7.6 mph 95 % 0 in
11:48 31.8 °F 30.6 °F 30.2 in NNE 6.3 mph 7.6 mph 95 % 0 in
11:53 31.8 °F 30.4 °F 30.2 in NE 6.3 mph 8.7 mph 94 % 0 in
11:58 31.8 °F 30.4 °F 30.2 in NNE 7.4 mph 10.5 mph 94 % 0 in
12:03 31.8 °F 30.4 °F 30.2 in NE 6.3 mph 10.5 mph 94 % 0 in
12:08 31.8 °F 30.4 °F 30.2 in NNE 7.8 mph 9.2 mph 94 % 0 in
12:13 31.8 °F 30.4 °F 30.2 in NE 4.3 mph 9.2 mph 94 % 0 in
12:18 31.8 °F 30 °F 30.2 in NNE 8.5 mph 10.3 mph 93 % 0 in
12:23 31.8 °F 30 °F 30.2 in NNE 7.6 mph 10.3 mph 93 % 0 in
12:28 32 °F 30.2 °F 30.2 in ENE 9.6 mph 10.5 mph 93 % 0 in
12:33 32.2 °F 30.4 °F 30.2 in NE 4.9 mph 10.5 mph 93 % 0 in
12:38 32.5 °F 30.7 °F 30.2 in NNE 4.9 mph 9.8 mph 93 % 0 in
12:43 32.7 °F 30.9 °F 30.2 in NE 7.8 mph 9.8 mph 93 % 0 in
12:48 32.7 °F 30.9 °F 30.2 in NE 10.1 mph 10.1 mph 93 % 0 in
12:53 32.5 °F 30.2 °F 30.2 in NE 9.8 mph 10.7 mph 91 % 0 in
12:58 32.5 °F 29.8 °F 30.2 in NNE 9.8 mph 11.4 mph 90 % 0 in
13:03 32.7 °F 30 °F 30.2 in NE 8.7 mph 11.4 mph 90 % 0 in
13:08 32.7 °F 29.8 °F 30.2 in NNE 7.8 mph 10.7 mph 89 % 0 in
13:13 32.7 °F 29.8 °F 30.2 in NE 7.6 mph 12.3 mph 89 % 0 in
13:18 32.7 °F 29.8 °F 30.2 in NNE 6.5 mph 12.3 mph 89 % 0 in
13:23 33.1 °F 30.2 °F 30.1 in NE 10.1 mph 10.1 mph 89 % 0 in
13:28 33.1 °F 30.2 °F 30.1 in NNE 7.8 mph 10.3 mph 89 % 0 in
13:33 33.1 °F 29.8 °F 30.1 in NNE 7.6 mph 10.7 mph 88 % 0 in
13:38 32.9 °F 29.7 °F 30.1 in NE 9.8 mph 11 mph 88 % 0 in
13:43 32.9 °F 29.7 °F 30.1 in NE 8.7 mph 11 mph 88 % 0 in
13:44 32.9 °F 29.7 °F 30.1 in NNE 10.1 mph 11 mph 88 % 0 in
13:49 32.7 °F 29.5 °F 30.1 in NE 9.4 mph 10.7 mph 88 % 0 in
13:54 32.7 °F 29.5 °F 30.1 in NNE 7.8 mph 10.5 mph 88 % 0 in
13:59 32.7 °F 29.5 °F 30.1 in NE 9.6 mph 11 mph 88 % 0 in
14:04 32.7 °F 29.5 °F 30.1 in NE 5.4 mph 11.2 mph 88 % 0 in
14:09 32.7 °F 29.5 °F 30.1 in ENE 7.4 mph 11.2 mph 88 % 0 in
14:14 32.7 °F 29.5 °F 30.1 in NE 8.5 mph 10.7 mph 88 % 0 in
14:19 32.7 °F 29.5 °F 30.1 in NE 7.8 mph 12.5 mph 88 % 0 in
14:24 32.7 °F 29.5 °F 30.1 in NE 8.9 mph 12.5 mph 88 % 0 in
14:29 32.7 °F 29.3 °F 30.1 in East 7.8 mph 10.5 mph 87 % 0 in
14:34 32.7 °F 29.5 °F 30.1 in NE 8.5 mph 10.5 mph 88 % 0 in
14:39 32.7 °F 29.5 °F 30.1 in NE 7.4 mph 9.8 mph 88 % 0 in
14:44 32.7 °F 29.5 °F 30.1 in NE 8.1 mph 11 mph 88 % 0 in
14:49 32.9 °F 29.7 °F 30.1 in NNE 6.3 mph 11 mph 88 % 0 in
14:54 33.1 °F 29.8 °F 30.1 in NE 8.7 mph 11 mph 88 % 0 in
14:59 33.1 °F 29.8 °F 30.1 in NNE 6 mph 10.1 mph 88 % 0 in
15:04 33.1 °F 29.8 °F 30.1 in NE 10.5 mph 10.5 mph 88 % 0 in
15:09 33.1 °F 29.7 °F 30.1 in ENE 9.8 mph 11 mph 87 % 0 in
15:14 33.3 °F 29.8 °F 30.1 in NE 8.5 mph 11 mph 87 % 0 in
15:19 33.3 °F 29.8 °F 30.1 in NNE 7.4 mph 9.2 mph 87 % 0 in
15:24 33.3 °F 29.8 °F 30.1 in NE 7.4 mph 8.7 mph 87 % 0 in
15:29 33.1 °F 29.8 °F 30.1 in North 7.8 mph 8.7 mph 88 % 0 in
15:35 33.1 °F 29.8 °F 30.1 in NNE 7.6 mph 10.3 mph 88 % 0 in
15:40 33.1 °F 29.8 °F 30.1 in NNE 6.3 mph 10.3 mph 88 % 0 in
15:45 33.1 °F 29.8 °F 30.1 in NNE 7.8 mph 9.6 mph 88 % 0 in
15:50 32.9 °F 29.7 °F 30.1 in NNE 5.4 mph 9.6 mph 88 % 0 in
15:55 32.9 °F 29.7 °F 30.1 in NE 7.6 mph 10.1 mph 88 % 0 in
16:00 33.1 °F 29.8 °F 30.1 in NNW 4.9 mph 10.1 mph 88 % 0 in
16:05 33.1 °F 29.8 °F 30.1 in NNE 5.6 mph 9.8 mph 88 % 0 in
16:10 33.1 °F 30.2 °F 30.1 in NE 8.1 mph 9.8 mph 89 % 0 in
16:15 32.9 °F 30 °F 30.1 in North 8.1 mph 9.8 mph 89 % 0 in
16:20 32.9 °F 30 °F 30.1 in NNE 7.6 mph 9.8 mph 89 % 0 in
16:25 32.9 °F 30 °F 30.1 in NNE 5.8 mph 9.8 mph 89 % 0 in
16:30 32.9 °F 30 °F 30.1 in NNE 5.6 mph 8.1 mph 89 % 0 in
16:35 32.9 °F 30 °F 30.1 in North 6 mph 10.1 mph 89 % 0 in
16:40 32.9 °F 30 °F 30.1 in NNE 5.4 mph 10.1 mph 89 % 0 in
16:45 32.9 °F 30 °F 30.1 in NE 6 mph 9.8 mph 89 % 0 in
16:50 32.9 °F 30 °F 30.1 in North 7.2 mph 10.3 mph 89 % 0 in
16:55 32.9 °F 30 °F 30.1 in NNE 8.7 mph 10.3 mph 89 % 0 in
17:00 32.7 °F 29.8 °F 30.1 in NE 7.8 mph 8.7 mph 89 % 0 in
17:05 32.7 °F 29.8 °F 30.1 in NE 6.3 mph 8.7 mph 89 % 0 in
17:10 32.7 °F 29.8 °F 30.1 in NE 3.8 mph 8.7 mph 89 % 0 in
17:15 32.7 °F 29.8 °F 30.1 in NE 6.3 mph 8.7 mph 89 % 0 in
17:20 32.7 °F 29.8 °F 30.1 in NNE 8.5 mph 8.7 mph 89 % 0 in
17:25 32.7 °F 29.8 °F 30.1 in NE 9.6 mph 9.6 mph 89 % 0 in
17:30 32.7 °F 30 °F 30.1 in NNE 5.8 mph 9.8 mph 90 % 0 in
17:35 32.7 °F 30 °F 30.1 in NNE 3.8 mph 9.8 mph 90 % 0 in
17:40 32.7 °F 30 °F 30.1 in NE 6 mph 8.7 mph 90 % 0 in
17:45 32.7 °F 30 °F 30.1 in NE 4.9 mph 9.6 mph 90 % 0 in
17:50 32.7 °F 30 °F 30.1 in NNE 3.8 mph 9.6 mph 90 % 0 in
17:55 32.7 °F 30 °F 30.1 in NNE 7.4 mph 7.4 mph 90 % 0 in
18:00 32.7 °F 30 °F 30.1 in ENE 6.7 mph 7.6 mph 90 % 0 in
18:03 32.5 °F 29.8 °F 30.1 in NE 6.5 mph 7.6 mph 90 % 0 in
18:08 32.5 °F 29.8 °F 30.1 in ENE 7.2 mph 7.8 mph 90 % 0 in
18:10 32.5 °F 29.8 °F 30.1 in NE 6.5 mph 7.8 mph 90 % 0 in
18:13 32.5 °F 29.8 °F 30.1 in NNE 5.4 mph 8.1 mph 90 % 0 in
18:18 32.5 °F 29.8 °F 30.1 in NE 7.4 mph 8.1 mph 90 % 0 in
18:21 32.5 °F 29.8 °F 30.1 in North 6 mph 8.1 mph 90 % 0 in
18:26 32.5 °F 29.8 °F 30.1 in NE 5.4 mph 9.4 mph 90 % 0 in
18:28 32.5 °F 29.8 °F 30.1 in NE 5.4 mph 9.4 mph 90 % 0 in
18:31 32.5 °F 29.8 °F 30.1 in North 4.3 mph 9.4 mph 90 % 0 in
18:36 32.5 °F 29.8 °F 30.1 in NE 5.4 mph 6.9 mph 90 % 0 in
18:38 32.5 °F 29.8 °F 30.1 in ENE 6 mph 8.7 mph 90 % 0 in
18:43 32.5 °F 29.8 °F 30.1 in NE 6.5 mph 8.7 mph 90 % 0 in
18:48 32.5 °F 29.8 °F 30.1 in North 3.6 mph 7.8 mph 90 % 0 in
18:49 32.5 °F 29.8 °F 30.1 in NNE 5.4 mph 7.8 mph 90 % 0 in
18:53 32.5 °F 30.2 °F 30.1 in North 5.4 mph 7.8 mph 91 % 0 in
18:58 32.5 °F 30.2 °F 30.1 in NE 4.3 mph 7.8 mph 91 % 0 in
19:03 32.5 °F 30.2 °F 30.1 in NNE 3.6 mph 7.2 mph 91 % 0 in
19:08 32.5 °F 30.2 °F 30.1 in NNE 4.9 mph 7.4 mph 91 % 0 in
19:13 32.5 °F 29.8 °F 30.1 in NE 7.4 mph 8.5 mph 90 % 0 in
19:18 32.5 °F 29.8 °F 30.1 in NNE 7.6 mph 8.5 mph 90 % 0 in
19:23 32.5 °F 29.8 °F 30.1 in NNW 5.6 mph 7.6 mph 90 % 0 in
19:28 32.5 °F 30.2 °F 30.1 in NE 6.7 mph 7.6 mph 91 % 0 in
19:33 32.5 °F 30.2 °F 30.1 in NE 5.6 mph 6.7 mph 91 % 0 in
19:38 32.5 °F 30.2 °F 30.2 in North 6 mph 6.5 mph 91 % 0 in
19:43 32.4 °F 30 °F 30.2 in NE 4.3 mph 6.5 mph 91 % 0 in
19:48 32.4 °F 30 °F 30.2 in NE 7.2 mph 7.2 mph 91 % 0 in
19:53 32.4 °F 30 °F 30.1 in NE 5.8 mph 7.2 mph 91 % 0 in
19:58 32.4 °F 30 °F 30.1 in ENE 4.9 mph 7.6 mph 91 % 0 in
20:03 32.4 °F 30 °F 30.1 in NNE 4.9 mph 7.6 mph 91 % 0 in
20:08 32.4 °F 30 °F 30.1 in NE 5.8 mph 6.7 mph 91 % 0 in
20:13 32.4 °F 30 °F 30.1 in NNE 6.5 mph 7.8 mph 91 % 0 in
20:18 32.2 °F 30 °F 30.1 in NE 6.5 mph 7.8 mph 92 % 0 in
20:23 32.2 °F 30 °F 30.1 in NE 5.4 mph 6.5 mph 92 % 0 in
20:28 32.2 °F 30 °F 30.1 in NNE 3.6 mph 6.5 mph 92 % 0 in
20:33 32 °F 30.2 °F 30.1 in NNE 3.8 mph 6.5 mph 93 % 0 in
20:38 32 °F 30.2 °F 30.1 in NE 3.8 mph 6.3 mph 93 % 0 in
20:43 32 °F 30.2 °F 30.1 in NE 2.7 mph 5.8 mph 93 % 0 in
20:48 32 °F 30.2 °F 30.1 in NE 4.3 mph 5.8 mph 93 % 0 in
20:53 32 °F 30.2 °F 30.1 in NNE 2.7 mph 5.8 mph 93 % 0 in
20:59 32 °F 30.2 °F 30.1 in NNE 3.4 mph 6 mph 93 % 0 in
21:04 31.8 °F 30.6 °F 30.1 in NE 3.8 mph 6 mph 95 % 0 in
21:09 31.8 °F 30.6 °F 30.1 in NNE 3.8 mph 5.6 mph 95 % 0 in
21:14 31.8 °F 30.6 °F 30.1 in NNE 3.4 mph 5.6 mph 95 % 0 in
21:19 31.8 °F 30.6 °F 30.1 in NE 5.6 mph 6.5 mph 95 % 0 in
21:24 31.8 °F 30.6 °F 30.1 in NNE 3.1 mph 6.5 mph 95 % 0 in
21:29 31.8 °F 30.6 °F 30.1 in NE 5.6 mph 6.5 mph 95 % 0 in
21:34 31.8 °F 30.7 °F 30.1 in NE 6 mph 7.2 mph 96 % 0 in
21:39 31.8 °F 30.7 °F 30.1 in NNE 5.4 mph 7.2 mph 96 % 0 in
21:44 31.8 °F 30.7 °F 30.1 in NE 5.6 mph 6.5 mph 96 % 0 in
21:49 31.8 °F 30.7 °F 30.1 in NNE 6 mph 6.5 mph 96 % 0 in
21:54 31.8 °F 30.7 °F 30.1 in North 4.7 mph 7.2 mph 96 % 0 in
21:59 31.8 °F 30.7 °F 30.1 in NE 5.6 mph 7.2 mph 96 % 0 in
22:04 31.8 °F 30.7 °F 30.1 in NNE 3.8 mph 6.5 mph 96 % 0 in
22:09 31.8 °F 30.7 °F 30.1 in NNE 4 mph 6.5 mph 96 % 0 in
22:14 31.8 °F 31.1 °F 30.1 in NNE 5.6 mph 6.5 mph 97 % 0 in
22:19 31.8 °F 31.1 °F 30.1 in NNE 6 mph 6.3 mph 97 % 0 in
22:24 31.8 °F 31.1 °F 30.1 in NNE 3.1 mph 6 mph 97 % 0 in
22:29 31.8 °F 31.1 °F 30.1 in NE 5.8 mph 6.5 mph 97 % 0 in
22:34 31.8 °F 31.1 °F 30.1 in NE 6 mph 7.8 mph 97 % 0 in
22:39 31.8 °F 31.1 °F 30.1 in NNE 3.4 mph 8.1 mph 97 % 0 in
22:44 32 °F 31.3 °F 30.1 in NE 3.4 mph 8.1 mph 97 % 0 in
22:49 32 °F 31.3 °F 30.1 in North 3.8 mph 6.7 mph 97 % 0 in
22:54 32 °F 31.3 °F 30.1 in NNE 3.6 mph 6.7 mph 97 % 0 in
22:59 32 °F 31.3 °F 30.1 in NE 4.5 mph 6.5 mph 97 % 0 in
23:04 32 °F 31.3 °F 30.1 in NNE 3.8 mph 6.5 mph 97 % 0 in
23:09 32 °F 31.3 °F 30.1 in NE 5.4 mph 6.5 mph 97 % 0 in
23:14 32 °F 31.3 °F 30.1 in North 3.8 mph 6.5 mph 97 % 0 in
23:19 32 °F 31.3 °F 30.1 in NE 3.1 mph 6.5 mph 97 % 0 in
23:24 32 °F 31.3 °F 30.1 in NNE 5.4 mph 5.6 mph 97 % 0 in
23:29 32 °F 31.3 °F 30.1 in North 4.7 mph 5.8 mph 97 % 0 in
23:34 32 °F 31.3 °F 30.1 in NNE 4 mph 5.8 mph 97 % 0 in
23:39 32.2 °F 31.5 °F 30.1 in NE 3.4 mph 5.8 mph 97 % 0 in
23:44 32.2 °F 31.5 °F 30.1 in NNE 4 mph 5.8 mph 97 % 0 in
23:49 32.2 °F 31.5 °F 30.1 in North 2.9 mph 5.6 mph 97 % 0 in
23:54 32.2 °F 31.5 °F 30.1 in NNE 3.8 mph 6.5 mph 97 % 0 in
23:59 32.2 °F 31.5 °F 30.1 in North 4.7 mph 6.5 mph 97 % 0 in
Le Gheer Warneton
Courtoisie de Weather Underground - 2.25 mb

Mise a jour : 18/12/2017 21:33:12
Généré par Cumulus 1.9.4 (1099)